PWSweather.com
Personal Weather Stations
Station Observations
REUBENS
Camas Prairie, Reubens, ID

Camas PrairieReubens, ID

Lat: 46.35417, Lon: -116.53167

Elevation: 3480

Station Type: Davis VantagePro 2

http://www.theobrienranch.com/wx/wx.htm

High Low Average
Temperature 47.6°F8.7°F 42.5°F5.8°F 45.0°F7.2°F
Dew Point 45.4°F7.4°F 41.2°F5.1°F 43.6°F6.4°F
Winds 12.2 mph E19.6 mph E Calm Calm 5.3 mph 8.5 mph
Wind Gusts 14.0 mph22.5 mph -- 6.7 mph10.8 mph
Humidity 97% 91% 95%
Pressure 30.12 in1020.00 in 29.93 in1013.50 in -
Precipitation 0.08 in2.00 in - -
Hour Temp Dew Point Humidity Winds Wind Gusts Pressure Precip Precip Rate Daily Precip Total
12:00 AM 44.3°F6.8°C 43.0°F6.1°C 95% Calm Calm -- 29.99 in1015.6 mb 0.00 in0.0 mm 0.00 in/hr0.0 mm/hr 0.00 in0.0 mm
12:30 AM 43.9°F6.6°C 42.3°F5.7°C 94% Calm Calm -- 30.00 in1015.9 mb 0.00 in0.0 mm 0.00 in/hr0.0 mm/hr 0.00 in0.0 mm
01:00 AM 43.7°F6.5°C 42.3°F5.7°C 95% Calm Calm -- 30.03 in1016.9 mb 0.00 in0.0 mm 0.00 in/hr0.0 mm/hr 0.00 in0.0 mm
01:30 AM 43.6°F6.4°C 42.3°F5.7°C 95% Calm Calm 2.0 mph3.2 kmh 30.03 in1016.9 mb 0.00 in0.0 mm 0.00 in/hr0.0 mm/hr 0.00 in0.0 mm
02:00 AM 43.7°F6.5°C 42.4°F5.8°C 95% Calm Calm -- 30.04 in1017.3 mb 0.00 in0.0 mm 0.00 in/hr0.0 mm/hr 0.00 in0.0 mm
02:30 AM 42.5°F5.8°C 41.2°F5.1°C 95% 0.2 mph W0.3 kmh W 3.0 mph4.8 kmh 30.05 in1017.6 mb 0.00 in0.0 mm 0.00 in/hr0.0 mm/hr 0.00 in0.0 mm
03:00 AM 43.5°F6.4°C 42.2°F5.7°C 95% 3.7 mph ENE6.0 kmh ENE 5.0 mph8.0 kmh 30.06 in1017.9 mb 0.00 in0.0 mm 0.00 in/hr0.0 mm/hr 0.00 in0.0 mm
03:30 AM 43.6°F6.4°C 42.3°F5.7°C 95% 2.8 mph SE4.5 kmh SE 4.0 mph6.4 kmh 30.06 in1017.9 mb 0.00 in0.0 mm 0.00 in/hr0.0 mm/hr 0.00 in0.0 mm
04:00 AM 43.5°F6.4°C 42.2°F5.7°C 95% 1.3 mph SE2.1 kmh SE 2.0 mph3.2 kmh 30.07 in1018.3 mb 0.00 in0.0 mm 0.00 in/hr0.0 mm/hr 0.00 in0.0 mm
04:30 AM 43.3°F6.3°C 42.2°F5.7°C 96% 3.9 mph SE6.3 kmh SE 5.0 mph8.0 kmh 30.07 in1018.3 mb 0.00 in0.0 mm 0.00 in/hr0.0 mm/hr 0.00 in0.0 mm
05:00 AM 43.4°F6.3°C 42.3°F5.7°C 96% Calm Calm -- 30.08 in1018.6 mb 0.01 in0.3 mm 0.02 in/hr0.5 mm/hr 0.01 in0.3 mm
05:30 AM 42.9°F6.1°C 41.8°F5.4°C 96% 2.9 mph SE4.7 kmh SE 4.0 mph6.4 kmh 30.07 in1018.3 mb 0.02 in0.5 mm 0.04 in/hr1.0 mm/hr 0.03 in0.8 mm
06:00 AM 43.0°F6.1°C 42.0°F5.6°C 96% 2.8 mph SE4.5 kmh SE 4.0 mph6.4 kmh 30.08 in1018.6 mb 0.00 in0.0 mm 0.00 in/hr0.0 mm/hr 0.03 in0.8 mm
06:30 AM 43.1°F6.2°C 42.0°F5.6°C 96% 4.9 mph SE7.9 kmh SE 6.0 mph9.7 kmh 30.09 in1019.0 mb 0.00 in0.0 mm 0.00 in/hr0.0 mm/hr 0.03 in0.8 mm
07:00 AM 42.7°F5.9°C 41.6°F5.3°C 96% 2.4 mph SE3.9 kmh SE 4.0 mph6.4 kmh 30.09 in1019.0 mb 0.00 in0.0 mm 0.00 in/hr0.0 mm/hr 0.03 in0.8 mm
07:30 AM 42.8°F6.0°C 41.7°F5.4°C 96% 2.0 mph SE3.2 kmh SE 3.0 mph4.8 kmh 30.10 in1019.3 mb 0.00 in0.0 mm 0.00 in/hr0.0 mm/hr 0.03 in0.8 mm
08:00 AM 43.1°F6.2°C 42.0°F5.6°C 96% 3.4 mph SE5.5 kmh SE 4.0 mph6.4 kmh 30.11 in1019.6 mb 0.01 in0.3 mm 0.02 in/hr0.5 mm/hr 0.04 in1.0 mm
08:30 AM 43.4°F6.3°C 42.3°F5.7°C 96% 6.0 mph SE9.7 kmh SE 8.0 mph12.9 kmh 30.11 in1019.6 mb 0.00 in0.0 mm 0.00 in/hr0.0 mm/hr 0.04 in1.0 mm
09:00 AM 44.0°F6.7°C 42.9°F6.1°C 96% 3.3 mph SE5.3 kmh SE 6.0 mph9.7 kmh 30.11 in1019.6 mb 0.00 in0.0 mm 0.00 in/hr0.0 mm/hr 0.04 in1.0 mm
09:30 AM 44.7°F7.1°C 43.4°F6.3°C 95% 4.8 mph SE7.7 kmh SE 5.0 mph8.0 kmh 30.12 in1020.0 mb 0.00 in0.0 mm 0.00 in/hr0.0 mm/hr 0.04 in1.0 mm
10:00 AM 45.4°F7.4°C 44.1°F6.7°C 95% 7.1 mph SE11.4 kmh SE 10.0 mph16.1 kmh 30.11 in1019.6 mb 0.00 in0.0 mm 0.00 in/hr0.0 mm/hr 0.04 in1.0 mm
10:30 AM 45.8°F7.7°C 44.2°F6.8°C 94% 6.5 mph SE10.5 kmh SE 8.0 mph12.9 kmh 30.11 in1019.6 mb 0.00 in0.0 mm 0.00 in/hr0.0 mm/hr 0.04 in1.0 mm
11:00 AM 46.3°F7.9°C 44.4°F6.9°C 93% 7.7 mph SE12.4 kmh SE 12.0 mph19.3 kmh 30.11 in1019.6 mb 0.00 in0.0 mm 0.00 in/hr0.0 mm/hr 0.04 in1.0 mm
11:30 AM 46.5°F8.1°C 44.0°F6.7°C 91% 10.5 mph SE16.9 kmh SE 13.0 mph20.9 kmh 30.10 in1019.3 mb 0.00 in0.0 mm 0.00 in/hr0.0 mm/hr 0.04 in1.0 mm
12:00 PM 46.5°F8.1°C 44.0°F6.7°C 91% 12.1 mph ESE19.5 kmh ESE 14.0 mph22.5 kmh 30.09 in1019.0 mb 0.00 in0.0 mm 0.00 in/hr0.0 mm/hr 0.04 in1.0 mm
12:30 PM 46.7°F8.2°C 44.5°F6.9°C 92% 10.4 mph SE16.7 kmh SE 11.0 mph17.7 kmh 30.08 in1018.6 mb 0.00 in0.0 mm 0.00 in/hr0.0 mm/hr 0.04 in1.0 mm
01:00 PM 47.0°F8.3°C 44.8°F7.1°C 92% 6.5 mph ESE10.5 kmh ESE 9.0 mph14.5 kmh 30.07 in1018.3 mb 0.00 in0.0 mm 0.00 in/hr0.0 mm/hr 0.04 in1.0 mm
01:30 PM 47.3°F8.5°C 45.1°F7.3°C 92% 7.4 mph ESE11.9 kmh ESE 11.0 mph17.7 kmh 30.06 in1017.9 mb 0.00 in0.0 mm 0.00 in/hr0.0 mm/hr 0.04 in1.0 mm
02:00 PM 47.5°F8.6°C 45.3°F7.4°C 92% 5.4 mph E8.7 kmh E 6.0 mph9.7 kmh 30.05 in1017.6 mb 0.00 in0.0 mm 0.00 in/hr0.0 mm/hr 0.04 in1.0 mm
02:30 PM 47.6°F8.7°C 45.4°F7.4°C 92% 5.9 mph ESE9.5 kmh ESE 7.0 mph11.3 kmh 30.05 in1017.6 mb 0.00 in0.0 mm 0.00 in/hr0.0 mm/hr 0.04 in1.0 mm
03:00 PM 47.5°F8.6°C 45.3°F7.4°C 92% 8.4 mph E13.5 kmh E 11.0 mph17.7 kmh 30.04 in1017.3 mb 0.00 in0.0 mm 0.00 in/hr0.0 mm/hr 0.04 in1.0 mm
03:30 PM 47.2°F8.4°C 45.3°F7.4°C 93% 7.7 mph E12.4 kmh E 9.0 mph14.5 kmh 30.05 in1017.6 mb 0.00 in0.0 mm 0.00 in/hr0.0 mm/hr 0.04 in1.0 mm
04:00 PM 46.9°F8.3°C 44.9°F7.2°C 93% 9.4 mph E15.1 kmh E 12.0 mph19.3 kmh 30.04 in1017.3 mb 0.00 in0.0 mm 0.00 in/hr0.0 mm/hr 0.04 in1.0 mm
04:30 PM 46.6°F8.1°C 44.7°F7.1°C 93% 5.2 mph E8.4 kmh E 6.0 mph9.7 kmh 30.04 in1017.3 mb 0.01 in0.3 mm 0.02 in/hr0.5 mm/hr 0.05 in1.3 mm
05:00 PM 46.5°F8.1°C 44.9°F7.2°C 94% 5.2 mph E8.4 kmh E 6.0 mph9.7 kmh 30.02 in1016.6 mb 0.01 in0.3 mm 0.02 in/hr0.5 mm/hr 0.06 in1.5 mm
05:30 PM 46.4°F8.0°C 45.0°F7.2°C 95% 4.7 mph E7.6 kmh E 5.0 mph8.0 kmh 30.02 in1016.6 mb 0.00 in0.0 mm 0.00 in/hr0.0 mm/hr 0.06 in1.5 mm
06:00 PM 46.4°F8.0°C 45.3°F7.4°C 96% 3.8 mph E6.1 kmh E 5.0 mph8.0 kmh 30.02 in1016.6 mb 0.02 in0.5 mm 0.04 in/hr1.0 mm/hr 0.08 in2.0 mm
06:30 PM 46.5°F8.1°C 45.4°F7.4°C 96% 3.7 mph E6.0 kmh E 5.0 mph8.0 kmh 30.01 in1016.3 mb 0.00 in0.0 mm 0.00 in/hr0.0 mm/hr 0.08 in2.0 mm
07:00 PM 46.4°F8.0°C 45.3°F7.4°C 96% 4.1 mph E6.6 kmh E 6.0 mph9.7 kmh 30.01 in1016.3 mb 0.00 in0.0 mm 0.00 in/hr0.0 mm/hr 0.08 in2.0 mm
07:30 PM 46.2°F7.9°C 45.2°F7.3°C 96% 8.4 mph ESE13.5 kmh ESE 10.0 mph16.1 kmh 30.00 in1015.9 mb 0.00 in0.0 mm 0.00 in/hr0.0 mm/hr 0.08 in2.0 mm
08:00 PM 46.1°F7.8°C 45.0°F7.2°C 96% 5.2 mph ESE8.4 kmh ESE 7.0 mph11.3 kmh 29.99 in1015.6 mb 0.00 in0.0 mm 0.00 in/hr0.0 mm/hr 0.08 in2.0 mm
08:30 PM 45.9°F7.7°C 44.8°F7.1°C 96% 3.4 mph ESE5.5 kmh ESE 4.0 mph6.4 kmh 29.99 in1015.6 mb 0.00 in0.0 mm 0.00 in/hr0.0 mm/hr 0.08 in2.0 mm
09:00 PM 45.1°F7.3°C 44.0°F6.7°C 96% 5.6 mph SE9.0 kmh SE 6.0 mph9.7 kmh 29.97 in1014.9 mb 0.00 in0.0 mm 0.00 in/hr0.0 mm/hr 0.08 in2.0 mm
09:30 PM 44.9°F7.2°C 43.8°F6.6°C 96% 9.3 mph ESE15.0 kmh ESE 11.0 mph17.7 kmh 29.96 in1014.6 mb 0.00 in0.0 mm 0.00 in/hr0.0 mm/hr 0.08 in2.0 mm
10:00 PM 44.2°F6.8°C 43.1°F6.2°C 96% 10.1 mph SE16.3 kmh SE 12.0 mph19.3 kmh 29.96 in1014.6 mb 0.00 in0.0 mm 0.00 in/hr0.0 mm/hr 0.08 in2.0 mm
10:30 PM 44.2°F6.8°C 43.1°F6.2°C 96% 11.9 mph SE19.2 kmh SE 14.0 mph22.5 kmh 29.95 in1014.2 mb 0.00 in0.0 mm 0.00 in/hr0.0 mm/hr 0.08 in2.0 mm
11:00 PM 44.3°F6.8°C 43.2°F6.2°C 96% 10.6 mph ESE17.1 kmh ESE 12.0 mph19.3 kmh 29.94 in1013.9 mb 0.00 in0.0 mm 0.00 in/hr0.0 mm/hr 0.08 in2.0 mm
11:30 PM 44.1°F6.7°C 43.3°F6.3°C 97% 12.2 mph E19.6 kmh E 14.0 mph22.5 kmh 29.93 in1013.5 mb 0.00 in0.0 mm 0.00 in/hr0.0 mm/hr 0.08 in2.0 mm